(°C)
11°
10°
10°
10°
10°
12°
13°
(°C)
10°
JJV
JJV
JJV
JJV
JJV
JJV
JJV
(km/h)
14-25
13-23
13-25
13-27
13-24
13-25
13-27
(mm)
0
0
0
0
0
0
0
(%)
0
0
0
0
0
0
0

Sun elevation

/ -28.8°
sun-icon
UV 3
05:44
19:29
(6°)
06:17
19:50

METAR for 52.17°S 20.97°V (EPWA)

Čas Conditions Teplota/
Rosný bod
Vietor Viditeľnosť Počasie Oblaky Tlak Change Raw
VFR 13°C / 6°C 180º 8kt >10km - Clouds and Visibility OK 1017 No Significant change EPWA 112230Z 18008KT CAVOK 13/06 Q1017 NOSIG
VFR 13°C / 6°C 180º variable 150º to 210º 9kt >10km - Clouds and Visibility OK 1017 No Significant change EPWA 112200Z 18009KT 150V210 CAVOK 13/06 Q1017 NOSIG
VFR 13°C / 6°C 180º variable 150º to 210º 6kt >10km Light Rain Clear 1016 No Significant change EPWA 112130Z 18006KT 150V210 9999 -RA NSC 13/06 Q1016 NOSIG
VFR 14°C / 6°C 190º variable 160º to 220º 7kt >10km Light Rain Clear 1016 No Significant change EPWA 112100Z 19007KT 160V220 9999 -RA NSC 14/06 Q1016 NOSIG
VFR 14°C / 6°C 200º 5kt >10km Light Rain Clear 1016 No Significant change EPWA 112030Z 20005KT 9999 -RA NSC 14/06 Q1016 NOSIG
VFR 15°C / 5°C 210º variable 190º to 250º 9kt >10km Light Rain Clear 1016 No Significant change EPWA 112000Z 21009KT 190V250 9999 -RA NSC 15/05 Q1016 NOSIG
VFR 15°C / 3°C 190º variable 160º to 230º 8kt >10km - Clouds and Visibility OK 1016 No Significant change EPWA 111930Z 19008KT 160V230 CAVOK 15/03 Q1016 NOSIG
VFR 16°C / 2°C 180º 8kt >10km - Clouds and Visibility OK 1016 No Significant change EPWA 111900Z 18008KT CAVOK 16/02 Q1016 NOSIG
VFR 16°C / 2°C 170º 11kt >10km - Clouds and Visibility OK 1016 No Significant change EPWA 111830Z 17011KT CAVOK 16/02 Q1016 NOSIG
VFR 16°C / 2°C 150º 13kt >10km - Clouds and Visibility OK 1016 No Significant change EPWA 111800Z 15013KT CAVOK 16/02 Q1016 NOSIG
VFR 16°C / 2°C 150º 14kt >10km - Clouds and Visibility OK 1015 No Significant change EPWA 111730Z 15014KT CAVOK 16/02 Q1015 NOSIG
VFR 16°C / 3°C 160º 11kt >10km - Clouds and Visibility OK 1015 No Significant change EPWA 111700Z 16011KT CAVOK 16/03 Q1015 NOSIG
VFR 17°C / 3°C 160º 11kt >10km - Clouds and Visibility OK 1015 No Significant change EPWA 111630Z 16011KT CAVOK 17/03 Q1015 NOSIG
VFR 18°C / 2°C 160º 12kt >10km - Clouds and Visibility OK 1015 No Significant change EPWA 111600Z 16012KT CAVOK 18/02 Q1015 NOSIG
VFR 18°C / 2°C 160º 14kt >10km - Clouds and Visibility OK 1015 No Significant change EPWA 111530Z 16014KT CAVOK 18/02 Q1015 NOSIG
VFR 19°C / 2°C 160º 16kt >10km - Clouds and Visibility OK 1015 No Significant change EPWA 111500Z 16016KT CAVOK 19/02 Q1015 NOSIG
VFR 20°C / 3°C 170º 12kt >10km - Clouds and Visibility OK 1015 No Significant change EPWA 111430Z 17012KT CAVOK 20/03 Q1015 NOSIG
VFR 19°C / 3°C 160º 15kt >10km - Clouds and Visibility OK 1015 No Significant change EPWA 111400Z 16015KT CAVOK 19/03 Q1015 NOSIG
VFR 20°C / 3°C 170º 16kt >10km - Clouds and Visibility OK 1015 No Significant change EPWA 111330Z 17016KT CAVOK 20/03 Q1015 NOSIG
VFR 20°C / 3°C 160º 16kt >10km - Clouds and Visibility OK 1015 No Significant change EPWA 111300Z 16016KT CAVOK 20/03 Q1015 NOSIG
VFR 19°C / 3°C 170º variable 140º to 200º 16kt >10km - Clouds and Visibility OK 1015 No Significant change EPWA 111230Z 17016KT 140V200 CAVOK 19/03 Q1015 NOSIG
VFR 19°C / 3°C 150º 18kt >10km - Clouds and Visibility OK 1016 No Significant change EPWA 111200Z 15018KT CAVOK 19/03 Q1016 NOSIG
VFR 19°C / 2°C 150º 17kt >10km - Clouds and Visibility OK 1016 No Significant change EPWA 111130Z 15017KT CAVOK 19/02 Q1016 NOSIG
VFR 19°C / 3°C 140º variable 110º to 170º 15kt >10km - Clouds and Visibility OK 1016 No Significant change EPWA 111100Z 14015KT 110V170 CAVOK 19/03 Q1016 NOSIG

VFR

13°C / 6°C

[Viac]
Vietor 180º 8kt
Viditeľnosť >10km
Počasie -
Oblaky Clouds and Visibility OK
Tlak 1017
Change No Significant change
Raw EPWA 112230Z 18008KT CAVOK 13/06 Q1017 NOSIG

VFR

13°C / 6°C

[Viac]
Vietor 180º variable 150º to 210º 9kt
Viditeľnosť >10km
Počasie -
Oblaky Clouds and Visibility OK
Tlak 1017
Change No Significant change
Raw EPWA 112200Z 18009KT 150V210 CAVOK 13/06 Q1017 NOSIG

VFR

13°C / 6°C

[Viac]
Vietor 180º variable 150º to 210º 6kt
Viditeľnosť >10km
Počasie Light Rain
Oblaky Clear
Tlak 1016
Change No Significant change
Raw EPWA 112130Z 18006KT 150V210 9999 -RA NSC 13/06 Q1016 NOSIG

VFR

14°C / 6°C

[Viac]
Vietor 190º variable 160º to 220º 7kt
Viditeľnosť >10km
Počasie Light Rain
Oblaky Clear
Tlak 1016
Change No Significant change
Raw EPWA 112100Z 19007KT 160V220 9999 -RA NSC 14/06 Q1016 NOSIG

VFR

14°C / 6°C

[Viac]
Vietor 200º 5kt
Viditeľnosť >10km
Počasie Light Rain
Oblaky Clear
Tlak 1016
Change No Significant change
Raw EPWA 112030Z 20005KT 9999 -RA NSC 14/06 Q1016 NOSIG

VFR

15°C / 5°C

[Viac]
Vietor 210º variable 190º to 250º 9kt
Viditeľnosť >10km
Počasie Light Rain
Oblaky Clear
Tlak 1016
Change No Significant change
Raw EPWA 112000Z 21009KT 190V250 9999 -RA NSC 15/05 Q1016 NOSIG

VFR

15°C / 3°C

[Viac]
Vietor 190º variable 160º to 230º 8kt
Viditeľnosť >10km
Počasie -
Oblaky Clouds and Visibility OK
Tlak 1016
Change No Significant change
Raw EPWA 111930Z 19008KT 160V230 CAVOK 15/03 Q1016 NOSIG

VFR

16°C / 2°C

[Viac]
Vietor 180º 8kt
Viditeľnosť >10km
Počasie -
Oblaky Clouds and Visibility OK
Tlak 1016
Change No Significant change
Raw EPWA 111900Z 18008KT CAVOK 16/02 Q1016 NOSIG

VFR

16°C / 2°C

[Viac]
Vietor 170º 11kt
Viditeľnosť >10km
Počasie -
Oblaky Clouds and Visibility OK
Tlak 1016
Change No Significant change
Raw EPWA 111830Z 17011KT CAVOK 16/02 Q1016 NOSIG

VFR

16°C / 2°C

[Viac]
Vietor 150º 13kt
Viditeľnosť >10km
Počasie -
Oblaky Clouds and Visibility OK
Tlak 1016
Change No Significant change
Raw EPWA 111800Z 15013KT CAVOK 16/02 Q1016 NOSIG

VFR

16°C / 2°C

[Viac]
Vietor 150º 14kt
Viditeľnosť >10km
Počasie -
Oblaky Clouds and Visibility OK
Tlak 1015
Change No Significant change
Raw EPWA 111730Z 15014KT CAVOK 16/02 Q1015 NOSIG

VFR

16°C / 3°C

[Viac]
Vietor 160º 11kt
Viditeľnosť >10km
Počasie -
Oblaky Clouds and Visibility OK
Tlak 1015
Change No Significant change
Raw EPWA 111700Z 16011KT CAVOK 16/03 Q1015 NOSIG

VFR

17°C / 3°C

[Viac]
Vietor 160º 11kt
Viditeľnosť >10km
Počasie -
Oblaky Clouds and Visibility OK
Tlak 1015
Change No Significant change
Raw EPWA 111630Z 16011KT CAVOK 17/03 Q1015 NOSIG

VFR

18°C / 2°C

[Viac]
Vietor 160º 12kt
Viditeľnosť >10km
Počasie -
Oblaky Clouds and Visibility OK
Tlak 1015
Change No Significant change
Raw EPWA 111600Z 16012KT CAVOK 18/02 Q1015 NOSIG

VFR

18°C / 2°C

[Viac]
Vietor 160º 14kt
Viditeľnosť >10km
Počasie -
Oblaky Clouds and Visibility OK
Tlak 1015
Change No Significant change
Raw EPWA 111530Z 16014KT CAVOK 18/02 Q1015 NOSIG

VFR

19°C / 2°C

[Viac]
Vietor 160º 16kt
Viditeľnosť >10km
Počasie -
Oblaky Clouds and Visibility OK
Tlak 1015
Change No Significant change
Raw EPWA 111500Z 16016KT CAVOK 19/02 Q1015 NOSIG

VFR

20°C / 3°C

[Viac]
Vietor 170º 12kt
Viditeľnosť >10km
Počasie -
Oblaky Clouds and Visibility OK
Tlak 1015
Change No Significant change
Raw EPWA 111430Z 17012KT CAVOK 20/03 Q1015 NOSIG

VFR

19°C / 3°C

[Viac]
Vietor 160º 15kt
Viditeľnosť >10km
Počasie -
Oblaky Clouds and Visibility OK
Tlak 1015
Change No Significant change
Raw EPWA 111400Z 16015KT CAVOK 19/03 Q1015 NOSIG

VFR

20°C / 3°C

[Viac]
Vietor 170º 16kt
Viditeľnosť >10km
Počasie -
Oblaky Clouds and Visibility OK
Tlak 1015
Change No Significant change
Raw EPWA 111330Z 17016KT CAVOK 20/03 Q1015 NOSIG

VFR

20°C / 3°C

[Viac]
Vietor 160º 16kt
Viditeľnosť >10km
Počasie -
Oblaky Clouds and Visibility OK
Tlak 1015
Change No Significant change
Raw EPWA 111300Z 16016KT CAVOK 20/03 Q1015 NOSIG

VFR

19°C / 3°C

[Viac]
Vietor 170º variable 140º to 200º 16kt
Viditeľnosť >10km
Počasie -
Oblaky Clouds and Visibility OK
Tlak 1015
Change No Significant change
Raw EPWA 111230Z 17016KT 140V200 CAVOK 19/03 Q1015 NOSIG

VFR

19°C / 3°C

[Viac]
Vietor 150º 18kt
Viditeľnosť >10km
Počasie -
Oblaky Clouds and Visibility OK
Tlak 1016
Change No Significant change
Raw EPWA 111200Z 15018KT CAVOK 19/03 Q1016 NOSIG

VFR

19°C / 2°C

[Viac]
Vietor 150º 17kt
Viditeľnosť >10km
Počasie -
Oblaky Clouds and Visibility OK
Tlak 1016
Change No Significant change
Raw EPWA 111130Z 15017KT CAVOK 19/02 Q1016 NOSIG

VFR

19°C / 3°C

[Viac]
Vietor 140º variable 110º to 170º 15kt
Viditeľnosť >10km
Počasie -
Oblaky Clouds and Visibility OK
Tlak 1016
Change No Significant change
Raw EPWA 111100Z 14015KT 110V170 CAVOK 19/03 Q1016 NOSIG

TAF for 52.17°S 20.97°V (EPWA)

From till


From till Wind 160º 8kt. Visibility 10km or more. Broken Clouds 4000ft.
Becoming from till Wind 330º 12kt. Visibility 10km or more. Broken Clouds 4000ft.
With 40% probability, Temporarly from till Light Showers Rain . Broken Clouds 1400ft. Broken Clouds 2500ft.

Raw: TAF EPWA 112030Z 1121/1221 16008KT 9999 BKN040 BECMG 1214/1216 33012KT PROB40 TEMPO 1215/1221 -SHRA BKN014 BKN025CB

Current satellite and rain images for 52.17°S 20.97°V

  • Zrážky:
  • <1 mm
  • 1-2 mm
  • 2-5 mm
  • >5 mm

Značka polohy je umiestnená na52.17°S 20.97°V. [Viac]

The real-time satellite image combines visible light during daytime with infrared radiation during nighttime. At night, the image is not dark as infrared radiation can detect temperature differences. Unfortunately, low clouds and fog are difficult to distinguish from ground temperatures and thus can be almost invisible during the night. Meteosat satellite images for Europe are updated in real-time every 5 minutes. GOES-16/GOES-17 (North & South America) and Himawari (Asia) images update every 10 minutes.

Zrážky sú odhadované na základe radara a satelitov. V noci sú odhady zrážok zo satelitov menej presné než počas dňa. Oranžové krížiky označujú miesta, kde bol zaznamenaný blesk (za Európa).

Copyright 2021 EUMETSAT / meteoblue. Údaje o bleskoch poskytuje nowcast.